createdAt,value
2023-05-06T00:00:09.188Z,8.24
2023-05-06T00:04:13.400Z,8.69
2023-05-06T00:08:16.335Z,8.11
2023-05-06T00:12:19.055Z,8.36
2023-05-06T00:16:21.881Z,8.90
2023-05-06T00:20:26.402Z,8.16
2023-05-06T00:24:29.058Z,8.19
2023-05-06T00:28:31.795Z,8.69
2023-05-06T00:32:34.835Z,8.68
2023-05-06T00:36:39.594Z,8.37
2023-05-06T00:40:42.355Z,8.15
2023-05-06T00:44:45.297Z,8.27
2023-05-06T00:48:48.266Z,8.37
2023-05-06T00:52:54.624Z,8.54
2023-05-06T00:56:57.376Z,8.45
2023-05-06T01:01:01.786Z,8.72
2023-05-06T01:05:05.411Z,8.74
2023-05-06T01:09:15.887Z,8.99
2023-05-06T01:13:22.793Z,9.01
2023-05-06T01:17:28.970Z,8.85
2023-05-06T01:21:34.954Z,8.33
2023-05-06T01:25:39.151Z,8.20
2023-05-06T01:29:44.015Z,8.42
2023-05-06T01:33:52.082Z,7.96
2023-05-06T01:38:00.678Z,8.24
2023-05-06T01:42:05.080Z,8.17
2023-05-06T01:46:08.413Z,8.19
2023-05-06T01:50:12.099Z,7.72
2023-05-06T01:54:15.005Z,7.84
2023-05-06T01:58:19.499Z,8.00
2023-05-06T02:02:22.293Z,8.19
2023-05-06T02:11:46.720Z,8.02
2023-05-06T02:15:54.971Z,7.74
2023-05-06T02:19:57.849Z,7.25
2023-05-06T02:24:00.735Z,7.71
2023-05-06T02:28:03.448Z,7.59
2023-05-06T02:32:07.623Z,7.82
2023-05-06T02:36:10.314Z,7.68
2023-05-06T02:40:13.532Z,7.31
2023-05-06T02:44:16.137Z,7.70
2023-05-06T02:48:20.521Z,7.29
2023-05-06T02:52:23.152Z,6.72
2023-05-06T02:56:25.950Z,6.94
2023-05-06T03:00:28.603Z,7.31
2023-05-06T03:04:32.854Z,7.64
2023-05-06T03:08:35.705Z,7.04
2023-05-06T03:12:38.464Z,7.26
2023-05-06T03:16:41.436Z,7.53
2023-05-06T03:20:45.535Z,7.59
2023-05-06T03:24:48.455Z,6.98
2023-05-06T03:28:51.282Z,7.02
2023-05-06T03:32:54.694Z,7.22
2023-05-06T03:36:59.166Z,7.43
2023-05-06T03:41:01.892Z,7.00
2023-05-06T03:45:05.434Z,7.10
2023-05-06T03:49:08.387Z,7.37
2023-05-06T03:53:12.810Z,7.69
2023-05-06T03:57:15.650Z,7.72
2023-05-06T04:01:18.492Z,7.77
2023-05-06T04:05:21.319Z,7.12
2023-05-06T04:09:25.615Z,7.28
2023-05-06T04:13:28.701Z,7.77
2023-05-06T04:17:31.412Z,7.90
2023-05-06T04:21:34.246Z,7.74
2023-05-06T04:25:38.343Z,7.67
2023-05-06T04:29:41.139Z,7.66
2023-05-06T04:33:43.775Z,7.64
2023-05-06T04:37:46.357Z,7.58
2023-05-06T04:41:50.837Z,7.78
2023-05-06T04:45:54.419Z,7.99
2023-05-06T04:49:57.399Z,8.07
2023-05-06T04:54:00.153Z,8.09
2023-05-06T04:58:04.241Z,8.16
2023-05-06T05:02:06.981Z,8.17
2023-05-06T05:06:10.078Z,8.26
2023-05-06T05:10:13.066Z,8.46
2023-05-06T05:14:17.320Z,8.58
2023-05-06T05:18:20.011Z,8.90
2023-05-06T05:22:22.710Z,9.05
2023-05-06T05:26:26.066Z,9.04
2023-05-06T05:30:30.159Z,8.88
2023-05-06T05:34:32.817Z,9.07
2023-05-06T05:38:35.690Z,9.18
2023-05-06T05:42:38.440Z,9.53
2023-05-06T05:46:42.922Z,9.36
2023-05-06T05:50:46.015Z,9.60
2023-05-06T05:54:49.212Z,9.72
2023-05-06T05:58:52.254Z,9.69
2023-05-06T06:02:56.663Z,9.47
2023-05-06T06:07:01.899Z,9.31
2023-05-06T06:11:06.163Z,9.91
2023-05-06T06:15:10.335Z,9.56
2023-05-06T06:19:14.823Z,9.58
2023-05-06T06:23:18.068Z,9.46
2023-05-06T06:27:21.152Z,9.43
2023-05-06T06:31:24.167Z,9.51
2023-05-06T06:35:28.529Z,9.74
2023-05-06T06:39:31.538Z,10.01
2023-05-06T06:43:34.409Z,10.53
2023-05-06T06:47:37.588Z,10.85
2023-05-06T06:51:42.090Z,10.91
2023-05-06T06:55:44.932Z,10.69
2023-05-06T06:59:48.867Z,10.55
2023-05-06T07:03:51.859Z,10.69
2023-05-06T07:07:56.300Z,11.33
2023-05-06T07:11:59.161Z,11.62
2023-05-06T07:16:02.089Z,11.63
2023-05-06T07:20:06.451Z,11.69
2023-05-06T07:24:10.870Z,12.44
2023-05-06T07:28:13.667Z,12.82
2023-05-06T07:32:16.779Z,13.10
2023-05-06T07:36:19.505Z,12.69
2023-05-06T07:40:24.208Z,12.56
2023-05-06T07:44:27.288Z,13.00
2023-05-06T07:48:30.164Z,13.58
2023-05-06T07:52:32.947Z,13.15
2023-05-06T07:56:37.001Z,14.08
2023-05-06T08:00:39.982Z,14.28
2023-05-06T08:04:42.956Z,14.71
2023-05-06T08:08:46.562Z,13.85
2023-05-06T08:12:50.892Z,14.05
2023-05-06T08:16:54.406Z,13.48
2023-05-06T08:20:57.106Z,14.85
2023-05-06T08:24:59.846Z,14.65
2023-05-06T08:29:04.261Z,15.15
2023-05-06T08:33:07.093Z,15.73
2023-05-06T08:37:09.835Z,14.98
2023-05-06T08:41:13.001Z,15.53
2023-05-06T08:45:18.383Z,15.39
2023-05-06T08:49:21.391Z,16.41
2023-05-06T08:53:24.350Z,16.67
2023-05-06T08:57:27.065Z,17.39
2023-05-06T09:01:31.543Z,17.36
2023-05-06T09:05:34.532Z,18.14
2023-05-06T09:09:37.216Z,16.72
2023-05-06T09:13:39.798Z,17.74
2023-05-06T09:17:44.378Z,17.57
2023-05-06T09:21:48.896Z,17.63
2023-05-06T09:25:51.934Z,18.22
2023-05-06T09:30:02.605Z,17.33
2023-05-06T09:34:06.918Z,17.28
2023-05-06T09:38:11.001Z,17.85
2023-05-06T09:42:14.267Z,17.32
2023-05-06T09:46:17.935Z,17.49
2023-05-06T09:50:23.625Z,18.43
2023-05-06T09:54:26.455Z,18.44
2023-05-06T09:58:32.184Z,18.39
2023-05-06T10:02:35.953Z,19.19
2023-05-06T10:06:41.808Z,20.16
2023-05-06T10:10:44.645Z,20.22
2023-05-06T10:14:47.615Z,19.13
2023-05-06T10:18:51.587Z,20.46
2023-05-06T10:23:02.919Z,19.02
2023-05-06T10:27:06.924Z,18.70
2023-05-06T10:31:13.138Z,19.19
2023-05-06T10:35:22.036Z,18.83
2023-05-06T10:39:26.384Z,19.10
2023-05-06T10:43:30.962Z,18.21
2023-05-06T10:48:10.447Z,19.21
2023-05-06T10:52:14.591Z,19.22
2023-05-06T10:56:19.239Z,18.89
2023-05-06T11:00:22.678Z,19.59
2023-05-06T11:04:25.502Z,19.97
2023-05-06T11:08:28.679Z,20.63
2023-05-06T11:12:47.463Z,20.94
2023-05-06T11:16:51.673Z,20.34
2023-05-06T11:21:40.257Z,20.04
2023-05-06T11:25:47.395Z,19.28
2023-05-06T11:29:52.382Z,19.98
2023-05-06T11:33:58.056Z,20.10
2023-05-06T11:38:02.477Z,20.77
2023-05-06T11:42:07.321Z,21.64
2023-05-06T11:46:11.861Z,20.88
2023-05-06T11:50:15.384Z,22.04
2023-05-06T11:54:20.566Z,20.66
2023-05-06T11:58:26.438Z,22.06
2023-05-06T12:02:31.218Z,21.15
2023-05-06T12:06:35.492Z,21.69
2023-05-06T12:10:38.365Z,22.83
2023-05-06T12:14:41.553Z,21.71
2023-05-06T12:18:46.052Z,19.90
2023-05-06T12:23:07.736Z,20.94
2023-05-06T12:27:10.551Z,21.28
2023-05-06T12:31:20.420Z,20.91
2023-05-06T12:35:28.667Z,20.60
2023-05-06T12:39:35.675Z,22.14
2023-05-06T12:43:38.605Z,21.92
2023-05-06T12:47:41.500Z,21.59
2023-05-06T12:51:47.126Z,22.76
2023-05-06T12:55:50.696Z,22.57
2023-05-06T12:59:53.857Z,22.43
2023-05-06T13:03:57.233Z,21.39
2023-05-06T13:08:01.682Z,23.68
2023-05-06T13:12:05.377Z,23.47
2023-05-06T13:16:09.110Z,22.46
2023-05-06T13:20:13.723Z,20.50
2023-05-06T13:24:18.789Z,22.98
2023-05-06T13:28:21.825Z,20.76
2023-05-06T13:32:24.576Z,21.82
2023-05-06T13:36:28.245Z,21.26
2023-05-06T13:40:32.537Z,20.84
2023-05-06T13:44:36.005Z,20.39
2023-05-06T13:48:40.082Z,22.24
2023-05-06T13:52:43.253Z,20.32
2023-05-06T13:56:47.862Z,20.81
2023-05-06T14:00:50.796Z,22.33
2023-05-06T14:04:53.556Z,22.17
2023-05-06T14:08:56.790Z,22.63
2023-05-06T14:13:07.167Z,23.31
2023-05-06T14:17:11.339Z,22.33
2023-05-06T14:21:14.237Z,22.61
2023-05-06T14:25:17.238Z,22.19
2023-05-06T14:29:23.486Z,21.44
2023-05-06T14:33:26.317Z,21.78
2023-05-06T14:37:29.283Z,20.92
2023-05-06T14:41:32.147Z,21.65
2023-05-06T14:45:36.434Z,21.34
2023-05-06T14:49:39.456Z,21.34
2023-05-06T14:53:42.424Z,21.29
2023-05-06T14:57:45.132Z,21.42
2023-05-06T15:01:49.482Z,21.16
2023-05-06T15:05:53.309Z,20.71
2023-05-06T15:09:56.905Z,20.93
2023-05-06T15:13:59.877Z,21.14
2023-05-06T15:18:04.293Z,20.17
2023-05-06T15:22:07.415Z,20.39
2023-05-06T15:26:10.317Z,20.85
2023-05-06T15:30:13.714Z,20.79
2023-05-06T15:34:20.130Z,20.56
2023-05-06T15:38:24.034Z,20.49
2023-05-06T15:42:26.897Z,20.24
2023-05-06T15:46:31.208Z,20.28
2023-05-06T15:50:37.462Z,20.10
2023-05-06T15:54:41.195Z,20.07
2023-05-06T15:58:45.032Z,20.08
2023-05-06T16:02:47.944Z,19.98
2023-05-06T16:06:52.329Z,20.23
2023-05-06T16:10:55.386Z,20.23
2023-05-06T16:14:59.078Z,19.95
2023-05-06T16:19:02.000Z,19.63
2023-05-06T16:23:06.488Z,19.67
2023-05-06T16:27:10.307Z,19.47
2023-05-06T16:31:13.085Z,19.85
2023-05-06T16:35:17.343Z,19.55
2023-05-06T16:39:21.872Z,19.70
2023-05-06T16:43:24.805Z,19.77
2023-05-06T16:47:28.731Z,19.48
2023-05-06T16:51:32.375Z,19.37
2023-05-06T16:55:36.659Z,19.50
2023-05-06T16:59:39.406Z,19.37
2023-05-06T17:03:42.435Z,19.62
2023-05-06T17:07:45.358Z,19.33
2023-05-06T17:11:49.570Z,19.27
2023-05-06T17:15:52.619Z,19.15
2023-05-06T17:19:55.892Z,19.22
2023-05-06T17:23:59.491Z,19.16
2023-05-06T17:28:03.727Z,18.89
2023-05-06T17:32:06.785Z,18.59
2023-05-06T17:36:09.829Z,18.92
2023-05-06T17:40:15.516Z,18.58
2023-05-06T17:44:20.495Z,18.47
2023-05-06T17:48:26.927Z,17.84
2023-05-06T17:52:29.967Z,17.87
2023-05-06T17:56:33.039Z,17.63
2023-05-06T18:00:38.446Z,17.25
2023-05-06T18:04:43.913Z,17.12
2023-05-06T18:08:47.116Z,17.19
2023-05-06T18:12:51.239Z,17.60
2023-05-06T18:16:55.914Z,17.72
2023-05-06T18:20:59.061Z,17.17
2023-05-06T18:25:02.149Z,16.53
2023-05-06T18:29:05.743Z,16.65
2023-05-06T18:33:10.479Z,16.88
2023-05-06T18:37:13.842Z,16.72
2023-05-06T18:41:17.174Z,16.43
2023-05-06T18:45:20.396Z,16.32
2023-05-06T18:49:27.532Z,16.47
2023-05-06T18:53:32.187Z,16.27
2023-05-06T18:57:35.461Z,16.01
2023-05-06T19:01:40.601Z,15.66
2023-05-06T19:05:45.281Z,15.82
2023-05-06T19:09:55.100Z,15.15
2023-05-06T19:13:58.306Z,15.68
2023-05-06T19:18:08.776Z,14.99
2023-05-06T19:22:13.845Z,14.84
2023-05-06T19:31:33.296Z,15.47
2023-05-06T19:35:38.084Z,15.17
2023-05-06T19:39:42.803Z,14.33
2023-05-06T19:43:45.965Z,14.80
2023-05-06T19:47:49.238Z,14.82
2023-05-06T19:51:52.658Z,14.20
2023-05-06T19:55:59.281Z,14.51
2023-05-06T20:00:10.148Z,14.86
2023-05-06T20:04:14.039Z,14.62
2023-05-06T20:08:17.669Z,14.18
2023-05-06T20:12:22.270Z,14.22
2023-05-06T20:16:25.502Z,14.55
2023-05-06T20:20:39.953Z,14.50
2023-05-06T20:24:43.661Z,14.59
2023-05-06T20:28:48.668Z,14.11
2023-05-06T20:32:52.817Z,13.89
2023-05-06T20:37:10.448Z,13.92
2023-05-06T20:41:13.883Z,13.87
2023-05-06T20:45:20.657Z,13.50
2023-05-06T20:49:23.863Z,13.35
2023-05-06T20:53:27.419Z,13.41
2023-05-06T20:57:31.256Z,13.02
2023-05-06T21:01:37.781Z,12.96
2023-05-06T21:05:41.437Z,13.59
2023-05-06T21:09:44.639Z,13.54
2023-05-06T21:13:50.064Z,13.13
2023-05-06T21:17:55.297Z,13.42
2023-05-06T21:21:58.454Z,12.54
2023-05-06T21:26:01.796Z,12.67
2023-05-06T21:30:05.181Z,13.08
2023-05-06T21:34:10.792Z,12.67
2023-05-06T21:38:13.841Z,12.79
2023-05-06T21:42:17.205Z,12.68
2023-05-06T21:46:23.823Z,13.02
2023-05-06T21:50:28.549Z,12.31
2023-05-06T21:54:50.156Z,12.42
2023-05-06T21:58:54.774Z,11.83
2023-05-06T22:02:57.970Z,11.86
2023-05-06T22:07:03.506Z,12.52
2023-05-06T22:11:07.167Z,12.48
2023-05-06T22:15:11.295Z,11.89
2023-05-06T22:19:15.377Z,11.98
2023-05-06T22:23:22.008Z,12.16
2023-05-06T22:27:25.299Z,12.29
2023-05-06T22:31:35.643Z,12.41
2023-05-06T22:35:38.703Z,12.05
2023-05-06T22:39:43.126Z,12.52
2023-05-06T22:43:46.122Z,12.22
2023-05-06T22:47:49.196Z,12.27
2023-05-06T22:51:52.727Z,11.95
2023-05-06T22:56:01.224Z,11.76
2023-05-06T23:00:05.659Z,11.60
2023-05-06T23:04:08.663Z,12.02
2023-05-06T23:08:12.283Z,12.23
2023-05-06T23:12:16.864Z,11.78
2023-05-06T23:16:20.356Z,11.54
2023-05-06T23:20:23.387Z,11.94
2023-05-06T23:24:26.500Z,11.74
2023-05-06T23:28:35.108Z,11.43
2023-05-06T23:32:38.708Z,11.63
2023-05-06T23:36:42.443Z,11.58
2023-05-06T23:40:46.127Z,11.71
2023-05-06T23:44:50.534Z,10.99
2023-05-06T23:48:53.653Z,10.97
2023-05-06T23:52:56.762Z,10.93
2023-05-06T23:56:59.974Z,11.15
